Time;durP1;ratioP1;P1;durP2;ratioP2;P2;SDS_P1;SDS_P2;PMS_P1;PMS_P2;Temp;Humidity;BMP_temperature;BMP_pressure;BME280_temperature;BME280_humidity;BME280_pressure;Samples;Min_cycle;Max_cycle;Signal;HPM_P1;HPM_P2
2021/08/23 00:00:55;;;;;;;39.77;37.47;;;;;;;;;;5038182;28;20443;-92
2021/08/23 00:03:24;;;;;;;41.00;38.50;;;;;;;;;;5056233;28;20425;-92
2021/08/23 00:05:52;;;;;;;41.70;39.30;;;;;;;;;;5054671;28;20471;-92
2021/08/23 00:08:19;;;;;;;44.50;42.00;;;;;;;;;;5055339;28;20421;-92
2021/08/23 00:10:47;;;;;;;45.30;42.37;;;;;;;;;;5056155;28;20454;-93
2021/08/23 00:13:14;;;;;;;44.93;42.33;;;;;;;;;;5037521;28;20492;-92
2021/08/23 00:15:44;;;;;;;44.77;42.17;;;;;;;;;;5055886;28;20417;-93
2021/08/23 00:18:12;;;;;;;44.07;41.47;;;;;;;;;;5038454;28;20538;-93
2021/08/23 00:20:45;;;;;;;46.17;43.47;;;;;;;;;;5038606;28;20432;-93
2021/08/23 00:23:16;;;;;;;43.77;41.17;;;;;;;;;;5055761;28;20403;-93
2021/08/23 00:25:44;;;;;;;43.97;41.07;;;;;;;;;;5054748;28;20496;-92
2021/08/23 00:28:12;;;;;;;44.83;42.07;;;;;;;;;;5037809;28;20451;-93
2021/08/23 00:30:39;;;;;;;43.00;40.67;;;;;;;;;;5055207;28;20443;-92
2021/08/23 00:33:07;;;;;;;47.40;44.60;;;;;;;;;;5054868;28;20425;-92
2021/08/23 00:35:34;;;;;;;52.33;48.97;;;;;;;;;;5037268;28;20415;-93
2021/08/23 00:38:04;;;;;;;49.10;45.80;;;;;;;;;;5055160;28;20446;-93
2021/08/23 00:40:32;;;;;;;48.37;44.90;;;;;;;;;;5036963;28;20422;-92
2021/08/23 00:42:59;;;;;;;48.50;45.13;;;;;;;;;;5054650;28;20418;-92
2021/08/23 00:45:27;;;;;;;49.10;46.10;;;;;;;;;;5054916;28;20913;-93
2021/08/23 00:47:54;;;;;;;47.03;44.00;;;;;;;;;;5055203;28;20445;-93
2021/08/23 00:50:22;;;;;;;47.50;44.47;;;;;;;;;;5054909;28;20417;-93
2021/08/23 00:52:49;;;;;;;46.50;43.60;;;;;;;;;;5054767;28;20477;-92
2021/08/23 00:55:19;;;;;;;48.73;45.33;;;;;;;;;;5037280;28;20419;-93
2021/08/23 00:57:46;;;;;;;49.10;45.67;;;;;;;;;;5054472;28;20478;-92
2021/08/23 01:00:14;;;;;;;48.50;45.27;;;;;;;;;;5054365;28;20436;-92
2021/08/23 01:02:45;;;;;;;49.03;45.80;;;;;;;;;;5054544;28;20442;-93
2021/08/23 01:05:14;;;;;;;51.00;47.20;;;;;;;;;;5054681;28;20438;-93
2021/08/23 01:07:45;;;;;;;49.93;46.63;;;;;;;;;;5054550;28;20409;-94
2021/08/23 01:10:16;;;;;;;50.40;47.00;;;;;;;;;;5054611;28;20410;-93
2021/08/23 01:12:45;;;;;;;50.33;46.83;;;;;;;;;;5054393;28;20407;-94
2021/08/23 01:15:12;;;;;;;51.77;48.23;;;;;;;;;;5054403;28;20439;-94
2021/08/23 01:17:40;;;;;;;49.70;46.20;;;;;;;;;;5053724;28;20462;-94
2021/08/23 01:20:09;;;;;;;51.00;47.33;;;;;;;;;;5036981;28;20418;-93
2021/08/23 01:22:38;;;;;;;51.17;47.83;;;;;;;;;;5054355;28;20434;-94
2021/08/23 01:25:07;;;;;;;48.97;45.70;;;;;;;;;;5036878;28;20467;-91
2021/08/23 01:27:36;;;;;;;46.70;43.50;;;;;;;;;;5036928;28;20442;-93
2021/08/23 01:30:06;;;;;;;46.03;43.10;;;;;;;;;;5054802;28;20474;-92
2021/08/23 01:32:36;;;;;;;46.33;43.33;;;;;;;;;;5054257;28;20793;-93
2021/08/23 01:35:04;;;;;;;45.80;42.93;;;;;;;;;;5054162;28;20873;-93
2021/08/23 01:37:33;;;;;;;43.10;40.30;;;;;;;;;;5054107;28;20860;-92
2021/08/23 01:40:01;;;;;;;46.70;43.70;;;;;;;;;;5054213;28;20451;-94
2021/08/23 01:42:28;;;;;;;45.90;42.83;;;;;;;;;;5053668;28;20411;-94
2021/08/23 01:44:56;;;;;;;47.33;43.93;;;;;;;;;;5054221;28;20427;-94
2021/08/23 01:47:23;;;;;;;44.60;41.13;;;;;;;;;;5054078;28;20794;-93
2021/08/23 01:49:52;;;;;;;45.70;42.73;;;;;;;;;;5054187;28;20439;-93
2021/08/23 01:52:19;;;;;;;45.07;42.37;;;;;;;;;;5054047;28;20429;-93
2021/08/23 01:54:47;;;;;;;46.87;42.77;;;;;;;;;;5036461;28;20445;-93
2021/08/23 01:57:15;;;;;;;41.87;39.20;;;;;;;;;;5053748;28;20500;-92
2021/08/23 01:59:43;;;;;;;42.47;39.80;;;;;;;;;;5054236;28;20437;-93
2021/08/23 02:02:10;;;;;;;41.40;38.80;;;;;;;;;;5053981;28;20419;-92
2021/08/23 02:04:38;;;;;;;44.07;41.27;;;;;;;;;;5054278;28;20417;-94
2021/08/23 02:07:07;;;;;;;42.43;39.60;;;;;;;;;;5053550;28;20455;-93
2021/08/23 02:09:34;;;;;;;42.20;39.60;;;;;;;;;;5054111;28;20797;-93
2021/08/23 02:12:02;;;;;;;43.70;41.00;;;;;;;;;;5053627;28;20438;-92
2021/08/23 02:14:29;;;;;;;43.63;41.00;;;;;;;;;;5053716;28;20457;-92
2021/08/23 02:16:57;;;;;;;44.83;41.83;;;;;;;;;;5036252;28;20478;-92
2021/08/23 02:19:25;;;;;;;44.40;41.30;;;;;;;;;;5053476;28;20863;-93
2021/08/23 02:21:53;;;;;;;45.33;42.33;;;;;;;;;;5053412;28;20470;-93
2021/08/23 02:24:23;;;;;;;45.03;42.00;;;;;;;;;;5053638;28;20409;-92
2021/08/23 02:26:50;;;;;;;44.50;41.40;;;;;;;;;;5053677;28;20431;-92
2021/08/23 02:29:18;;;;;;;45.50;42.37;;;;;;;;;;5055861;28;20935;-93
2021/08/23 02:31:45;;;;;;;44.73;41.40;;;;;;;;;;5057264;28;20468;-92
2021/08/23 02:34:12;;;;;;;44.70;41.17;;;;;;;;;;5057130;28;20439;-93
2021/08/23 02:36:40;;;;;;;44.80;41.50;;;;;;;;;;5057672;28;20454;-92
2021/08/23 02:39:07;;;;;;;46.53;43.33;;;;;;;;;;5057466;28;20449;-93
2021/08/23 02:41:36;;;;;;;44.57;41.37;;;;;;;;;;5057538;28;20462;-92
2021/08/23 02:44:03;;;;;;;44.30;41.10;;;;;;;;;;5039116;28;20445;-93
2021/08/23 02:46:31;;;;;;;45.37;42.10;;;;;;;;;;5057320;28;20794;-92
2021/08/23 02:48:58;;;;;;;44.27;40.97;;;;;;;;;;5057032;28;20446;-94
2021/08/23 02:51:25;;;;;;;45.70;42.50;;;;;;;;;;5056957;28;20467;-93
2021/08/23 02:53:53;;;;;;;45.20;42.00;;;;;;;;;;5056398;28;20445;-93
2021/08/23 02:56:21;;;;;;;44.13;41.13;;;;;;;;;;5056697;28;20902;-94
2021/08/23 02:58:50;;;;;;;42.50;39.53;;;;;;;;;;5038851;28;20459;-92
2021/08/23 03:01:17;;;;;;;46.53;42.87;;;;;;;;;;5039042;28;20463;-93
2021/08/23 03:03:45;;;;;;;46.43;43.20;;;;;;;;;;5056536;28;20451;-92
2021/08/23 03:06:13;;;;;;;45.87;42.33;;;;;;;;;;5056662;28;20453;-94
2021/08/23 03:08:40;;;;;;;44.20;41.07;;;;;;;;;;5057027;28;20414;-93
2021/08/23 03:11:08;;;;;;;46.47;43.23;;;;;;;;;;5056865;28;20404;-94
2021/08/23 03:13:36;;;;;;;45.83;42.50;;;;;;;;;;5056610;28;20894;-95
2021/08/23 03:16:05;;;;;;;44.63;41.43;;;;;;;;;;5056631;28;20528;-95
2021/08/23 03:18:33;;;;;;;47.17;43.37;;;;;;;;;;5056207;28;20467;-96
2021/08/23 03:21:00;;;;;;;48.30;44.53;;;;;;;;;;5056409;28;20427;-95
2021/08/23 03:23:29;;;;;;;45.47;41.93;;;;;;;;;;5022444;28;20992;-93
2021/08/23 03:25:56;;;;;;;45.90;42.37;;;;;;;;;;5056341;28;20486;-94
2021/08/23 03:28:23;;;;;;;45.37;41.87;;;;;;;;;;5057009;28;20436;-95
2021/08/23 03:30:51;;;;;;;46.67;42.73;;;;;;;;;;5056383;28;20825;-94
2021/08/23 03:33:20;;;;;;;46.97;43.50;;;;;;;;;;5055794;28;20452;-95
2021/08/23 03:35:47;;;;;;;44.87;41.37;;;;;;;;;;5056315;28;20435;-94
2021/08/23 03:38:15;;;;;;;46.47;42.90;;;;;;;;;;5056113;28;20834;-95
2021/08/23 03:40:42;;;;;;;46.30;42.60;;;;;;;;;;5054923;28;20468;-93
2021/08/23 03:43:10;;;;;;;44.60;40.90;;;;;;;;;;5055608;28;20451;-95
2021/08/23 03:45:37;;;;;;;46.77;42.80;;;;;;;;;;5055860;28;20419;-94
2021/08/23 03:48:04;;;;;;;44.07;40.67;;;;;;;;;;5056467;28;20409;-94
2021/08/23 03:50:33;;;;;;;43.70;40.30;;;;;;;;;;5055740;28;20411;-95
2021/08/23 03:53:01;;;;;;;44.83;41.13;;;;;;;;;;5055686;28;20402;-95
2021/08/23 03:55:28;;;;;;;42.53;39.23;;;;;;;;;;5038303;28;20446;-94
2021/08/23 03:57:56;;;;;;;43.23;39.80;;;;;;;;;;5055574;28;20481;-94
2021/08/23 04:00:23;;;;;;;44.10;40.47;;;;;;;;;;5038186;28;20419;-94
2021/08/23 04:02:50;;;;;;;43.67;40.27;;;;;;;;;;5038089;28;20435;-93
2021/08/23 04:05:18;;;;;;;43.20;39.83;;;;;;;;;;5055763;28;20441;-94
2021/08/23 04:07:47;;;;;;;42.33;38.83;;;;;;;;;;5055543;28;20450;-94
2021/08/23 04:10:14;;;;;;;44.50;41.00;;;;;;;;;;5055217;28;20467;-95
2021/08/23 04:12:42;;;;;;;45.60;42.00;;;;;;;;;;5037712;28;20766;-94
2021/08/23 04:15:10;;;;;;;44.53;41.10;;;;;;;;;;5056019;28;20442;-95
2021/08/23 04:17:37;;;;;;;45.07;41.43;;;;;;;;;;5054920;28;20467;-94
2021/08/23 04:20:05;;;;;;;43.70;40.27;;;;;;;;;;5055404;28;20419;-94
2021/08/23 04:22:33;;;;;;;45.40;41.67;;;;;;;;;;5055242;28;20452;-94
2021/08/23 04:25:02;;;;;;;44.30;40.63;;;;;;;;;;5055035;28;20477;-94
2021/08/23 04:27:29;;;;;;;41.47;38.40;;;;;;;;;;5055899;28;20472;-93
2021/08/23 04:29:56;;;;;;;40.27;37.27;;;;;;;;;;5055285;28;20452;-95
2021/08/23 04:32:24;;;;;;;41.87;38.40;;;;;;;;;;5055065;28;20441;-94
2021/08/23 04:34:51;;;;;;;39.77;36.67;;;;;;;;;;5055563;28;20419;-94
2021/08/23 04:37:19;;;;;;;39.00;36.07;;;;;;;;;;5054924;28;20462;-93
2021/08/23 04:39:47;;;;;;;37.80;34.93;;;;;;;;;;5054834;28;20430;-93
2021/08/23 04:42:16;;;;;;;38.27;35.37;;;;;;;;;;5037511;28;20431;-95
2021/08/23 04:44:43;;;;;;;41.23;38.00;;;;;;;;;;5054536;28;20476;-94
2021/08/23 04:47:11;;;;;;;40.27;37.27;;;;;;;;;;5054662;28;20460;-94
2021/08/23 04:49:39;;;;;;;40.27;37.27;;;;;;;;;;5054857;28;20471;-95
2021/08/23 04:52:06;;;;;;;38.83;36.00;;;;;;;;;;5054135;28;20447;-93
2021/08/23 04:54:34;;;;;;;37.03;34.53;;;;;;;;;;5054766;28;20440;-94
2021/08/23 04:57:01;;;;;;;38.47;35.80;;;;;;;;;;5036736;28;20423;-94
2021/08/23 04:59:30;;;;;;;37.00;34.10;;;;;;;;;;5054386;28;20441;-94
2021/08/23 05:01:58;;;;;;;38.23;35.53;;;;;;;;;;5036807;28;20448;-94
2021/08/23 05:04:25;;;;;;;38.90;36.00;;;;;;;;;;5036952;28;20518;-95
2021/08/23 05:06:53;;;;;;;37.80;34.70;;;;;;;;;;5054671;28;20437;-94
2021/08/23 05:09:20;;;;;;;39.53;36.30;;;;;;;;;;5037401;28;20441;-94
2021/08/23 05:11:48;;;;;;;37.40;34.80;;;;;;;;;;5054663;28;20439;-92
2021/08/23 05:14:15;;;;;;;38.17;35.33;;;;;;;;;;5054022;28;21014;-94
2021/08/23 05:16:44;;;;;;;37.43;34.43;;;;;;;;;;5054377;28;20432;-94
2021/08/23 05:19:12;;;;;;;36.27;33.67;;;;;;;;;;5054029;28;20470;-93
2021/08/23 05:21:39;;;;;;;37.37;34.30;;;;;;;;;;5054387;28;20904;-91
2021/08/23 05:24:06;;;;;;;36.00;33.40;;;;;;;;;;5054136;28;20435;-86
2021/08/23 05:26:34;;;;;;;35.93;33.43;;;;;;;;;;5054068;28;20457;-87
2021/08/23 05:29:01;;;;;;;36.30;33.47;;;;;;;;;;5054354;28;20521;-86
2021/08/23 05:31:29;;;;;;;35.77;33.30;;;;;;;;;;5053560;28;20450;-85
2021/08/23 05:33:57;;;;;;;34.70;32.20;;;;;;;;;;5036177;28;20903;-85
2021/08/23 05:36:25;;;;;;;34.90;31.80;;;;;;;;;;5054001;28;20439;-85
2021/08/23 05:38:52;;;;;;;36.30;33.73;;;;;;;;;;5036319;28;20547;-85
2021/08/23 05:41:20;;;;;;;35.33;32.77;;;;;;;;;;5054095;28;20436;-90
2021/08/23 05:43:47;;;;;;;35.67;32.43;;;;;;;;;;5053966;28;20421;-90
2021/08/23 05:46:16;;;;;;;37.33;34.53;;;;;;;;;;5053964;28;20434;-91
2021/08/23 05:48:43;;;;;;;37.93;34.93;;;;;;;;;;5053595;28;20440;-85
2021/08/23 05:51:14;;;;;;;33.90;31.43;;;;;;;;;;5054150;28;20421;-86
2021/08/23 05:53:42;;;;;;;33.13;30.97;;;;;;;;;;5053786;28;20448;-85
2021/08/23 05:56:09;;;;;;;34.13;31.63;;;;;;;;;;5053657;28;20433;-85
2021/08/23 05:58:37;;;;;;;33.70;31.30;;;;;;;;;;5053403;28;20460;-85
2021/08/23 06:01:06;;;;;;;33.80;31.40;;;;;;;;;;5053619;28;20505;-90
2021/08/23 06:03:35;;;;;;;35.13;32.63;;;;;;;;;;5055490;28;20503;-91
2021/08/23 06:06:05;;;;;;;35.37;32.93;;;;;;;;;;5057931;28;20749;-86
2021/08/23 06:08:34;;;;;;;34.30;31.80;;;;;;;;;;5057619;28;20413;-86
2021/08/23 06:11:02;;;;;;;35.03;32.47;;;;;;;;;;5057347;28;20903;-86
2021/08/23 06:13:29;;;;;;;35.13;32.77;;;;;;;;;;5039944;28;20451;-85
2021/08/23 06:15:57;;;;;;;34.30;31.67;;;;;;;;;;5057100;28;20446;-86
2021/08/23 06:18:24;;;;;;;35.00;32.47;;;;;;;;;;5057237;28;20475;-85
2021/08/23 06:20:53;;;;;;;37.23;34.10;;;;;;;;;;5057159;28;20911;-85
2021/08/23 06:23:21;;;;;;;35.13;32.43;;;;;;;;;;5056948;28;20415;-85
2021/08/23 06:25:49;;;;;;;37.03;34.10;;;;;;;;;;5056901;28;20469;-85
2021/08/23 06:28:19;;;;;;;35.90;33.30;;;;;;;;;;5057205;28;20425;-85
2021/08/23 06:30:47;;;;;;;36.50;33.73;;;;;;;;;;5039809;28;20446;-85
2021/08/23 06:33:14;;;;;;;35.23;32.53;;;;;;;;;;5057117;28;20801;-86
2021/08/23 06:35:42;;;;;;;36.53;33.63;;;;;;;;;;5039574;28;20420;-85
2021/08/23 06:38:09;;;;;;;35.70;32.97;;;;;;;;;;5057173;28;20407;-86
2021/08/23 06:40:36;;;;;;;37.73;34.90;;;;;;;;;;5057007;28;20441;-86
2021/08/23 06:43:05;;;;;;;35.10;32.47;;;;;;;;;;5057259;28;20432;-85
2021/08/23 06:45:33;;;;;;;35.90;33.10;;;;;;;;;;5057258;28;20466;-87
2021/08/23 06:48:00;;;;;;;38.83;35.80;;;;;;;;;;5039647;28;20412;-87
2021/08/23 06:50:28;;;;;;;35.53;32.87;;;;;;;;;;5056678;28;20410;-87
2021/08/23 06:52:56;;;;;;;33.93;31.40;;;;;;;;;;5056764;28;20778;-86
2021/08/23 06:55:23;;;;;;;37.23;34.23;;;;;;;;;;5039032;28;20422;-86
2021/08/23 06:57:51;;;;;;;35.93;33.40;;;;;;;;;;5056656;28;20433;-86
2021/08/23 07:00:20;;;;;;;38.50;35.20;;;;;;;;;;5056358;28;20502;-87
2021/08/23 07:02:47;;;;;;;38.00;35.00;;;;;;;;;;5056373;28;20450;-86
2021/08/23 07:05:15;;;;;;;36.10;33.10;;;;;;;;;;5056519;28;20439;-87
2021/08/23 07:07:42;;;;;;;39.27;36.17;;;;;;;;;;5039465;28;20430;-86
2021/08/23 07:10:12;;;;;;;38.50;35.37;;;;;;;;;;5056431;28;20418;-84
2021/08/23 07:12:39;;;;;;;38.60;35.50;;;;;;;;;;5056365;28;20418;-86
2021/08/23 07:15:07;;;;;;;40.27;37.00;;;;;;;;;;5056119;28;20432;-86
2021/08/23 07:17:36;;;;;;;37.20;34.30;;;;;;;;;;5056350;28;20430;-87
2021/08/23 07:20:04;;;;;;;38.77;35.73;;;;;;;;;;5056704;28;20941;-86
2021/08/23 07:22:32;;;;;;;37.97;34.60;;;;;;;;;;5056317;28;20437;-87
2021/08/23 07:24:59;;;;;;;37.90;34.77;;;;;;;;;;5056396;28;20455;-87
2021/08/23 07:27:27;;;;;;;36.90;34.00;;;;;;;;;;5056099;28;20454;-83
2021/08/23 07:29:54;;;;;;;37.07;34.17;;;;;;;;;;5056085;28;20538;-84
2021/08/23 07:32:21;;;;;;;39.57;36.37;;;;;;;;;;5056365;28;20527;-84
2021/08/23 07:34:50;;;;;;;38.03;35.03;;;;;;;;;;5038110;28;20518;-84
2021/08/23 07:37:18;;;;;;;38.50;35.23;;;;;;;;;;5056017;28;20503;-90
2021/08/23 07:39:46;;;;;;;37.37;34.33;;;;;;;;;;5056062;28;20522;-91
2021/08/23 07:42:13;;;;;;;35.03;32.47;;;;;;;;;;5056417;28;20849;-86
2021/08/23 07:44:41;;;;;;;38.97;35.60;;;;;;;;;;5055844;28;20432;-86
2021/08/23 07:47:08;;;;;;;34.37;31.97;;;;;;;;;;5056956;28;20797;-87
2021/08/23 07:49:36;;;;;;;35.50;32.90;;;;;;;;;;5056008;28;20435;-82
2021/08/23 07:52:05;;;;;;;34.37;31.97;;;;;;;;;;5056090;28;20435;-86
2021/08/23 07:54:35;;;;;;;35.80;33.10;;;;;;;;;;5056233;28;20417;-83
2021/08/23 07:57:03;;;;;;;34.70;32.10;;;;;;;;;;5057085;28;20943;-84
2021/08/23 07:59:30;;;;;;;34.53;32.03;;;;;;;;;;5055450;28;20475;-88
2021/08/23 08:01:57;;;;;;;34.20;31.60;;;;;;;;;;5055666;28;20943;-86
2021/08/23 08:04:25;;;;;;;33.00;30.60;;;;;;;;;;5056223;28;20437;-88
2021/08/23 08:06:52;;;;;;;33.00;30.30;;;;;;;;;;5055627;28;20427;-89
2021/08/23 08:09:21;;;;;;;34.17;31.77;;;;;;;;;;5055701;28;20924;-85
2021/08/23 08:11:49;;;;;;;33.40;30.80;;;;;;;;;;5055048;28;20432;-90
2021/08/23 08:14:16;;;;;;;32.17;29.50;;;;;;;;;;5055294;28;20772;-84
2021/08/23 08:16:43;;;;;;;32.13;29.80;;;;;;;;;;5055119;28;20931;-87
2021/08/23 08:19:11;;;;;;;31.10;28.87;;;;;;;;;;5045987;28;20565;-84
2021/08/23 08:21:38;;;;;;;34.00;31.23;;;;;;;;;;5034673;28;20811;-84
2021/08/23 08:24:06;;;;;;;30.73;28.63;;;;;;;;;;5035007;28;20416;-83
2021/08/23 08:26:34;;;;;;;31.27;29.30;;;;;;;;;;5016603;28;20455;-84
2021/08/23 08:29:02;;;;;;;29.50;27.60;;;;;;;;;;5034895;28;20426;-83
2021/08/23 08:31:30;;;;;;;28.77;26.97;;;;;;;;;;5034548;28;20454;-85
2021/08/23 08:33:57;;;;;;;28.30;26.50;;;;;;;;;;5034634;28;20408;-81
2021/08/23 08:36:25;;;;;;;27.40;25.70;;;;;;;;;;5035027;28;20456;-82
2021/08/23 08:38:52;;;;;;;27.47;25.70;;;;;;;;;;5034261;28;20485;-81
2021/08/23 08:41:20;;;;;;;27.73;25.73;;;;;;;;;;5016835;28;20452;-86
2021/08/23 08:43:49;;;;;;;26.23;24.53;;;;;;;;;;5034393;28;20861;-82
2021/08/23 08:46:16;;;;;;;26.50;24.90;;;;;;;;;;5034205;28;20449;-85
2021/08/23 08:48:45;;;;;;;27.07;25.03;;;;;;;;;;5016865;28;20990;-85
2021/08/23 08:51:13;;;;;;;27.17;25.37;;;;;;;;;;5034365;28;20411;-80
2021/08/23 08:53:41;;;;;;;26.43;24.60;;;;;;;;;;5034052;28;20454;-81
2021/08/23 08:56:08;;;;;;;26.60;25.00;;;;;;;;;;5034232;28;20863;-79
2021/08/23 08:58:36;;;;;;;26.30;24.70;;;;;;;;;;5034833;28;20480;-80
2021/08/23 09:01:06;;;;;;;28.73;26.47;;;;;;;;;;5034797;28;20427;-83
2021/08/23 09:03:33;;;;;;;26.30;24.63;;;;;;;;;;5016078;28;20503;-82
2021/08/23 09:06:02;;;;;;;26.80;25.10;;;;;;;;;;5034032;28;20449;-81
2021/08/23 09:08:30;;;;;;;27.67;25.97;;;;;;;;;;5034286;28;20419;-81
2021/08/23 09:10:57;;;;;;;26.60;24.93;;;;;;;;;;5035309;28;20498;-81
2021/08/23 09:13:27;;;;;;;26.90;25.20;;;;;;;;;;5033898;28;20417;-83
2021/08/23 09:15:55;;;;;;;26.20;24.70;;;;;;;;;;5034353;28;20473;-86
2021/08/23 09:18:24;;;;;;;26.90;25.30;;;;;;;;;;5036049;28;20410;-83
2021/08/23 09:20:58;;;;;;;27.47;25.97;;;;;;;;;;5053723;28;20506;-83
2021/08/23 09:23:34;;;;;;;26.90;25.10;;;;;;;;;;5053750;28;20418;-83
2021/08/23 09:26:06;;;;;;;27.50;25.80;;;;;;;;;;5053710;28;20488;-89
2021/08/23 09:28:34;;;;;;;25.97;24.17;;;;;;;;;;5054195;28;20427;-91
2021/08/23 09:31:03;;;;;;;26.47;24.90;;;;;;;;;;5054329;28;20982;-91
2021/08/23 09:33:41;;;;;;;27.20;25.60;;;;;;;;;;5054354;28;20937;-89
2021/08/23 09:36:09;;;;;;;27.87;26.17;;;;;;;;;;5053813;28;20426;-89
2021/08/23 09:38:39;;;;;;;26.17;24.57;;;;;;;;;;5055382;28;20447;-84
2021/08/23 09:41:07;;;;;;;27.47;25.40;;;;;;;;;;5058078;28;20462;-85
2021/08/23 09:43:35;;;;;;;27.43;25.93;;;;;;;;;;5040121;28;20418;-85
2021/08/23 09:46:09;;;;;;;26.50;24.90;;;;;;;;;;5057751;28;20448;-85
2021/08/23 09:48:40;;;;;;;25.50;24.10;;;;;;;;;;5036021;28;20436;-84
2021/08/23 09:51:07;;;;;;;26.80;25.30;;;;;;;;;;5037501;28;20412;-84
2021/08/23 09:53:35;;;;;;;26.83;25.33;;;;;;;;;;5037564;28;20419;-85
2021/08/23 09:56:02;;;;;;;26.90;25.00;;;;;;;;;;5037494;28;20433;-84
2021/08/23 09:58:30;;;;;;;25.83;24.30;;;;;;;;;;5037774;28;20413;-84
2021/08/23 10:00:58;;;;;;;25.57;24.07;;;;;;;;;;5037647;28;20485;-84
2021/08/23 10:03:29;;;;;;;26.63;25.03;;;;;;;;;;5037454;28;20469;-84
2021/08/23 10:05:58;;;;;;;25.20;23.90;;;;;;;;;;5037333;28;20524;-84
2021/08/23 10:08:25;;;;;;;27.17;25.47;;;;;;;;;;5037498;28;20444;-84
2021/08/23 10:10:54;;;;;;;26.30;24.70;;;;;;;;;;5037374;28;20459;-84
2021/08/23 10:13:21;;;;;;;27.50;25.87;;;;;;;;;;5036922;28;20423;-83
2021/08/23 10:15:49;;;;;;;26.30;24.40;;;;;;;;;;5037286;28;20764;-85
2021/08/23 10:18:16;;;;;;;26.27;24.63;;;;;;;;;;5037341;28;20442;-84
2021/08/23 10:20:44;;;;;;;25.37;24.07;;;;;;;;;;5036985;28;20996;-84
2021/08/23 10:23:16;;;;;;;27.13;25.43;;;;;;;;;;5037406;28;20415;-83
2021/08/23 10:25:44;;;;;;;26.87;25.07;;;;;;;;;;5037107;28;20451;-85
2021/08/23 10:28:13;;;;;;;26.73;25.13;;;;;;;;;;5037045;28;20904;-84
2021/08/23 10:30:40;;;;;;;26.53;24.90;;;;;;;;;;5036817;28;20511;-85
2021/08/23 10:33:12;;;;;;;25.93;24.33;;;;;;;;;;5018565;28;20420;-84
2021/08/23 10:35:48;;;;;;;26.53;24.80;;;;;;;;;;5037121;28;20442;-82
2021/08/23 10:38:18;;;;;;;25.57;24.17;;;;;;;;;;5037381;28;20472;-83
2021/08/23 10:40:47;;;;;;;25.77;24.23;;;;;;;;;;5037271;28;20459;-84
2021/08/23 10:43:16;;;;;;;26.60;25.13;;;;;;;;;;5036843;28;20437;-83
2021/08/23 10:45:44;;;;;;;25.73;24.10;;;;;;;;;;5036720;28;20422;-84
2021/08/23 10:48:18;;;;;;;24.53;23.23;;;;;;;;;;5037055;28;20416;-84
2021/08/23 10:50:58;;;;;;;26.13;24.27;;;;;;;;;;5055719;28;20456;-84
2021/08/23 10:53:34;;;;;;;26.07;24.47;;;;;;;;;;5056321;28;20433;-83
2021/08/23 10:56:12;;;;;;;25.20;23.80;;;;;;;;;;5056407;28;20430;-84
2021/08/23 10:58:39;;;;;;;25.93;24.43;;;;;;;;;;5056242;28;20448;-84
2021/08/23 11:01:16;;;;;;;25.40;23.90;;;;;;;;;;5056312;28;20467;-89
2021/08/23 11:03:44;;;;;;;24.90;23.40;;;;;;;;;;5056308;28;20445;-81
2021/08/23 11:06:12;;;;;;;26.40;24.90;;;;;;;;;;5056463;28;20896;-80
2021/08/23 11:08:42;;;;;;;25.90;24.30;;;;;;;;;;5056115;28;20439;-82
2021/08/23 11:11:13;;;;;;;26.23;24.50;;;;;;;;;;5056940;28;20512;-84
2021/08/23 11:13:41;;;;;;;25.90;24.40;;;;;;;;;;5056955;28;20446;-85
2021/08/23 11:16:09;;;;;;;24.20;22.80;;;;;;;;;;5057346;28;20479;-81
2021/08/23 11:18:41;;;;;;;24.90;23.40;;;;;;;;;;5054577;28;20420;-83
2021/08/23 11:21:09;;;;;;;24.20;22.80;;;;;;;;;;5036333;28;20488;-86
2021/08/23 11:23:37;;;;;;;26.53;24.70;;;;;;;;;;5035902;28;20421;-86
2021/08/23 11:26:05;;;;;;;27.63;25.83;;;;;;;;;;5036122;28;20481;-85
2021/08/23 11:28:33;;;;;;;26.30;24.43;;;;;;;;;;5036471;28;20461;-86
2021/08/23 11:31:02;;;;;;;25.37;23.87;;;;;;;;;;5036191;28;20445;-86
2021/08/23 11:33:31;;;;;;;25.10;23.50;;;;;;;;;;5035878;28;20461;-86
2021/08/23 11:35:58;;;;;;;26.07;24.60;;;;;;;;;;5037207;28;20427;-87
2021/08/23 11:38:29;;;;;;;24.73;23.33;;;;;;;;;;5036079;28;20480;-87
2021/08/23 11:40:57;;;;;;;24.30;22.90;;;;;;;;;;5035834;28;20690;-86
2021/08/23 11:43:28;;;;;;;25.17;23.57;;;;;;;;;;5035957;28;20478;-86
2021/08/23 11:45:56;;;;;;;26.60;25.10;;;;;;;;;;5035625;28;20427;-86
2021/08/23 11:48:23;;;;;;;24.60;23.20;;;;;;;;;;5035617;28;20421;-86
2021/08/23 11:50:51;;;;;;;25.63;23.97;;;;;;;;;;5035923;28;20427;-86
2021/08/23 11:53:22;;;;;;;25.27;23.90;;;;;;;;;;5035652;28;20466;-86
2021/08/23 11:55:50;;;;;;;25.20;23.60;;;;;;;;;;5035768;28;20520;-86
2021/08/23 11:58:19;;;;;;;24.90;23.40;;;;;;;;;;5035865;28;20498;-86
2021/08/23 12:01:01;;;;;;;24.30;22.80;;;;;;;;;;5034504;28;20558;-86
2021/08/23 12:03:30;;;;;;;23.70;22.13;;;;;;;;;;5035586;28;20500;-86
2021/08/23 12:06:04;;;;;;;23.17;21.87;;;;;;;;;;5035591;28;20453;-86
2021/08/23 12:08:34;;;;;;;23.33;21.93;;;;;;;;;;5035594;28;20790;-86
2021/08/23 12:11:04;;;;;;;23.97;22.57;;;;;;;;;;5035086;28;20469;-85
2021/08/23 12:13:37;;;;;;;24.20;22.70;;;;;;;;;;5035469;28;20882;-85
2021/08/23 12:16:07;;;;;;;22.50;21.20;;;;;;;;;;5035180;28;20463;-84
2021/08/23 12:18:35;;;;;;;23.30;22.10;;;;;;;;;;5034819;28;20788;-84
2021/08/23 12:21:07;;;;;;;23.70;22.30;;;;;;;;;;5034985;28;20896;-84
2021/08/23 12:23:48;;;;;;;25.00;23.50;;;;;;;;;;5034953;28;20442;-84
2021/08/23 12:26:16;;;;;;;23.63;22.23;;;;;;;;;;5017155;28;20468;-85
2021/08/23 12:28:49;;;;;;;23.33;22.03;;;;;;;;;;5034895;28;20409;-84
2021/08/23 12:31:18;;;;;;;25.57;23.97;;;;;;;;;;5034829;28;20455;-84
2021/08/23 12:33:46;;;;;;;24.77;23.00;;;;;;;;;;5034494;28;20442;-84
2021/08/23 12:36:14;;;;;;;28.27;25.33;;;;;;;;;;5034943;28;20412;-84
2021/08/23 12:38:43;;;;;;;23.13;21.63;;;;;;;;;;5034252;28;20931;-84
2021/08/23 12:41:11;;;;;;;24.83;23.43;;;;;;;;;;5034584;28;20489;-84
2021/08/23 12:43:39;;;;;;;24.30;22.70;;;;;;;;;;5034219;28;20422;-84
2021/08/23 12:46:06;;;;;;;22.87;21.67;;;;;;;;;;5034516;28;20900;-84
2021/08/23 12:48:36;;;;;;;24.20;22.80;;;;;;;;;;5038192;28;20792;-83
2021/08/23 12:51:05;;;;;;;23.07;21.67;;;;;;;;;;5056153;28;20417;-93
2021/08/23 12:53:32;;;;;;;23.10;21.80;;;;;;;;;;5055084;28;20452;-88
2021/08/23 12:56:00;;;;;;;23.47;22.07;;;;;;;;;;5054607;28;20927;-88
2021/08/23 12:58:28;;;;;;;23.00;21.60;;;;;;;;;;5054234;28;20469;-88
2021/08/23 13:00:55;;;;;;;23.10;21.70;;;;;;;;;;5054260;28;20476;-88
2021/08/23 13:03:24;;;;;;;23.33;21.73;;;;;;;;;;5054295;28;20441;-88
2021/08/23 13:05:53;;;;;;;22.53;21.27;;;;;;;;;;5054288;28;20481;-88
2021/08/23 13:08:20;;;;;;;22.90;21.57;;;;;;;;;;5054625;28;20438;-87
2021/08/23 13:10:48;;;;;;;23.17;21.57;;;;;;;;;;5054331;28;20499;-87
2021/08/23 13:13:16;;;;;;;22.60;21.07;;;;;;;;;;5054341;28;20428;-89
2021/08/23 13:15:43;;;;;;;23.30;21.80;;;;;;;;;;5053897;28;20436;-89
2021/08/23 13:18:11;;;;;;;22.90;21.50;;;;;;;;;;5054860;28;20469;-88
2021/08/23 13:20:39;;;;;;;23.50;21.97;;;;;;;;;;5055028;28;20459;-88
2021/08/23 13:23:11;;;;;;;23.87;22.20;;;;;;;;;;5054238;28;20445;-87
2021/08/23 13:25:39;;;;;;;22.67;21.27;;;;;;;;;;5054276;28;20480;-88
2021/08/23 13:28:07;;;;;;;24.00;22.17;;;;;;;;;;5053601;28;20528;-88
2021/08/23 13:30:35;;;;;;;22.47;21.10;;;;;;;;;;5053919;28;20979;-86
2021/08/23 13:33:04;;;;;;;23.40;21.83;;;;;;;;;;5054529;28;20539;-88
2021/08/23 13:35:31;;;;;;;23.53;21.80;;;;;;;;;;5054194;28;20478;-88
2021/08/23 13:37:59;;;;;;;22.30;20.90;;;;;;;;;;5036973;28;20505;-88
2021/08/23 13:40:28;;;;;;;23.50;21.90;;;;;;;;;;5054426;28;20480;-88
2021/08/23 13:42:55;;;;;;;24.10;22.60;;;;;;;;;;5036876;28;20445;-88
2021/08/23 13:45:23;;;;;;;22.20;21.00;;;;;;;;;;5054342;28;20882;-87
2021/08/23 13:47:51;;;;;;;22.60;21.30;;;;;;;;;;5053842;28;20904;-88
2021/08/23 13:50:18;;;;;;;22.20;21.00;;;;;;;;;;5053990;28;20908;-88
2021/08/23 13:52:46;;;;;;;23.33;21.83;;;;;;;;;;5053803;28;20413;-88
2021/08/23 13:55:13;;;;;;;22.67;21.20;;;;;;;;;;5053974;28;20434;-89
2021/08/23 13:57:42;;;;;;;22.53;21.33;;;;;;;;;;5053828;28;20948;-90
2021/08/23 14:00:11;;;;;;;22.53;21.23;;;;;;;;;;5054023;28;20521;-89
2021/08/23 14:02:38;;;;;;;23.03;21.43;;;;;;;;;;5053485;28;20929;-88
2021/08/23 14:05:06;;;;;;;21.67;20.43;;;;;;;;;;5048539;28;20447;-88
2021/08/23 14:07:34;;;;;;;21.23;20.10;;;;;;;;;;5050930;28;20435;-88
2021/08/23 14:10:01;;;;;;;22.37;21.13;;;;;;;;;;5053042;28;20465;-89
2021/08/23 14:12:28;;;;;;;21.80;20.60;;;;;;;;;;5050869;28;20472;-88
2021/08/23 14:15:00;;;;;;;20.87;19.77;;;;;;;;;;5034777;28;20445;-89
2021/08/23 14:17:27;;;;;;;21.50;20.27;;;;;;;;;;5033975;28;20434;-89
2021/08/23 14:19:56;;;;;;;21.57;20.37;;;;;;;;;;5033487;28;20421;-88
2021/08/23 14:22:24;;;;;;;22.67;21.27;;;;;;;;;;5033324;28;20493;-92